Time;durP1;ratioP1;P1;durP2;ratioP2;P2;SDS_P1;SDS_P2;PMS_P1;PMS_P2;Temp;Humidity;BMP_temperature;BMP_pressure;BME280_temperature;BME280_humidity;BME280_pressure;Samples;Min_cycle;Max_cycle;Signal;HPM_P1;HPM_P2
2023/08/29 00:00:20;;;;;;;1410.88;999.90;;;13.00;99.90;;;;;;5043678;28;20124;-87
2023/08/29 00:02:48;;;;;;;1385.10;999.90;;;13.00;99.90;;;;;;5025555;28;20072;-87
2023/08/29 00:05:13;;;;;;;1384.57;999.90;;;12.90;99.90;;;;;;5065267;28;20400;-86
2023/08/29 00:07:42;;;;;;;1238.60;999.22;;;12.90;99.90;;;;;;5049660;28;20049;-86
2023/08/29 00:10:08;;;;;;;1327.07;999.90;;;12.90;99.90;;;;;;5035183;28;20084;-86
2023/08/29 00:12:34;;;;;;;1311.55;999.90;;;12.80;99.90;;;;;;5048909;28;20056;-86
2023/08/29 00:15:01;;;;;;;1333.32;999.90;;;12.70;99.90;;;;;;5067043;28;20123;-87
2023/08/29 00:17:27;;;;;;;1322.50;999.90;;;12.70;99.90;;;;;;5049717;28;20078;-87
2023/08/29 00:19:54;;;;;;;1391.47;999.90;;;12.70;99.90;;;;;;5048334;28;20127;-87
2023/08/29 00:22:20;;;;;;;1321.32;999.90;;;12.70;99.90;;;;;;5066074;28;20032;-86
2023/08/29 00:24:47;;;;;;;1483.40;999.90;;;12.70;99.90;;;;;;5062321;28;20052;-87
2023/08/29 00:27:13;;;;;;;1345.47;999.90;;;12.70;99.90;;;;;;5048641;28;20380;-87
2023/08/29 00:29:39;;;;;;;1376.50;999.90;;;12.70;99.90;;;;;;5035219;28;20137;-86
2023/08/29 00:32:05;;;;;;;1397.28;999.90;;;12.70;99.90;;;;;;5069837;28;20048;-86
2023/08/29 00:34:30;;;;;;;1513.15;999.90;;;12.70;99.90;;;;;;5051300;28;20495;-87
2023/08/29 00:36:56;;;;;;;1396.13;999.90;;;12.70;99.90;;;;;;5052952;28;20525;-87
2023/08/29 00:39:22;;;;;;;1448.30;999.90;;;12.60;99.90;;;;;;5034132;28;20076;-86
2023/08/29 00:41:49;;;;;;;1476.60;999.90;;;12.60;99.90;;;;;;5036418;28;20038;-87
2023/08/29 00:44:16;;;;;;;1390.53;999.90;;;12.60;99.90;;;;;;5052915;28;20122;-85
2023/08/29 00:46:44;;;;;;;1345.10;999.90;;;12.70;99.90;;;;;;5035357;28;20218;-86
2023/08/29 00:49:11;;;;;;;1396.68;999.90;;;12.70;99.90;;;;;;5052948;28;20070;-87
2023/08/29 00:51:39;;;;;;;1449.28;999.90;;;12.70;99.90;;;;;;5035283;28;20545;-87
2023/08/29 00:54:08;;;;;;;1472.47;999.90;;;12.80;99.90;;;;;;5050579;28;20113;-87
2023/08/29 00:56:34;;;;;;;1371.47;999.90;;;12.80;99.90;;;;;;5040165;28;20116;-87
2023/08/29 00:59:01;;;;;;;1480.82;999.90;;;12.80;99.90;;;;;;5064844;28;20047;-86
2023/08/29 01:01:28;;;;;;;1465.55;999.90;;;12.80;99.90;;;;;;5034713;28;20136;-87
2023/08/29 01:03:55;;;;;;;1466.63;999.90;;;12.80;99.90;;;;;;5035430;28;20041;-86
2023/08/29 01:06:21;;;;;;;1474.13;999.90;;;12.80;99.90;;;;;;5051886;28;20446;-86
2023/08/29 01:08:47;;;;;;;1491.38;999.90;;;12.90;99.90;;;;;;5051325;28;20084;-87
2023/08/29 01:11:34;;;;;;;1441.65;999.90;;;12.90;99.90;;;;;;5051456;28;20084;-87
2023/08/29 01:14:06;;;;;;;1474.82;999.90;;;12.90;99.90;;;;;;5035068;28;20044;-87
2023/08/29 01:16:43;;;;;;;1484.03;999.90;;;12.80;99.90;;;;;;5035010;28;20181;-86
2023/08/29 01:19:14;;;;;;;1492.13;999.90;;;12.90;99.90;;;;;;5048804;28;20048;-86
2023/08/29 01:21:47;;;;;;;1393.07;999.90;;;12.90;99.90;;;;;;5021297;28;20456;-87
2023/08/29 01:24:44;;;;;;;1523.40;999.90;;;12.80;99.90;;;;;;5035318;28;20067;-86
2023/08/29 01:27:11;;;;;;;1397.90;999.90;;;12.80;99.90;;;;;;5052343;28;20040;-87
2023/08/29 01:29:39;;;;;;;1394.43;999.90;;;12.80;99.90;;;;;;5034054;28;20150;-86
2023/08/29 01:32:05;;;;;;;1504.72;999.90;;;12.80;99.90;;;;;;5042083;28;20049;-86
2023/08/29 01:34:32;;;;;;;1461.00;999.90;;;12.80;99.90;;;;;;5051816;28;20076;-86
2023/08/29 01:36:57;;;;;;;1370.07;999.90;;;12.80;99.90;;;;;;5068811;28;20335;-87
2023/08/29 01:39:24;;;;;;;1347.70;999.90;;;12.80;99.90;;;;;;5067199;28;20385;-87
2023/08/29 01:41:51;;;;;;;1483.07;999.90;;;12.80;99.90;;;;;;5068381;28;20056;-86
2023/08/29 01:44:16;;;;;;;1476.13;999.90;;;12.70;99.90;;;;;;5052329;28;20080;-87
2023/08/29 01:46:42;;;;;;;1389.05;999.90;;;12.70;99.90;;;;;;5071008;28;20142;-86
2023/08/29 01:49:08;;;;;;;1425.82;999.90;;;12.60;99.90;;;;;;5051550;28;20075;-87
2023/08/29 01:51:34;;;;;;;1504.90;999.90;;;12.60;99.90;;;;;;5063312;28;20088;-86
2023/08/29 01:54:00;;;;;;;1412.15;999.90;;;12.60;99.90;;;;;;5051632;28;20510;-87
2023/08/29 01:56:28;;;;;;;1388.28;999.90;;;12.60;99.90;;;;;;5050823;28;20047;-87
2023/08/29 01:58:56;;;;;;;1492.93;999.90;;;12.50;99.90;;;;;;5034254;28;20045;-87
2023/08/29 02:01:22;;;;;;;1439.22;999.90;;;12.50;99.90;;;;;;5050789;28;20041;-87
2023/08/29 02:03:48;;;;;;;1419.78;999.90;;;12.40;99.90;;;;;;5037213;28;20049;-86
2023/08/29 02:06:14;;;;;;;1541.10;999.90;;;12.30;99.90;;;;;;5067768;28;20632;-86
2023/08/29 02:08:41;;;;;;;1415.18;999.90;;;12.30;99.90;;;;;;5014690;28;20494;-86
2023/08/29 02:11:07;;;;;;;1316.97;999.90;;;12.20;99.90;;;;;;5026142;28;20079;-86
2023/08/29 02:13:33;;;;;;;1368.30;999.90;;;12.20;99.90;;;;;;5050761;28;20511;-86
2023/08/29 02:16:02;;;;;;;1301.20;999.90;;;12.00;99.90;;;;;;5050580;28;20102;-87
2023/08/29 02:18:28;;;;;;;1313.70;999.90;;;12.00;99.90;;;;;;5067949;28;20439;-86
2023/08/29 02:20:54;;;;;;;1438.57;999.90;;;11.80;99.90;;;;;;5068525;28;20063;-87
2023/08/29 02:23:20;;;;;;;1513.47;999.90;;;11.80;99.90;;;;;;5051134;28;20048;-86
2023/08/29 02:25:46;;;;;;;1380.75;999.90;;;11.70;99.90;;;;;;5049134;28;20051;-86
2023/08/29 02:28:12;;;;;;;1509.22;999.90;;;11.70;99.90;;;;;;5050458;28;20447;-87
2023/08/29 02:30:38;;;;;;;1628.78;999.90;;;11.60;99.90;;;;;;5038403;28;20119;-86
2023/08/29 02:33:04;;;;;;;1530.32;999.90;;;11.60;99.90;;;;;;5050397;28;20140;-86
2023/08/29 02:35:30;;;;;;;1761.35;999.90;;;11.60;99.90;;;;;;5050212;28;20051;-86
2023/08/29 02:37:55;;;;;;;1613.03;999.90;;;11.60;99.90;;;;;;5067108;28;20102;-86
2023/08/29 02:40:22;;;;;;;1489.65;999.90;;;11.50;99.90;;;;;;5049114;28;20691;-86
2023/08/29 02:42:48;;;;;;;1490.07;999.90;;;11.40;99.90;;;;;;5049774;28;20051;-86
2023/08/29 02:45:14;;;;;;;1531.75;999.90;;;11.40;99.90;;;;;;5050479;28;20106;-86
2023/08/29 02:47:39;;;;;;;1708.53;999.90;;;11.30;99.90;;;;;;5049008;28;20491;-86
2023/08/29 02:50:06;;;;;;;1528.75;999.90;;;11.30;99.90;;;;;;5068228;28;20044;-86
2023/08/29 02:52:32;;;;;;;1702.13;999.90;;;11.20;99.90;;;;;;5068383;28;20044;-86
2023/08/29 02:54:58;;;;;;;1594.50;999.90;;;11.20;99.90;;;;;;5064996;28;20044;-86
2023/08/29 02:57:24;;;;;;;1678.25;999.90;;;11.20;99.90;;;;;;5050510;28;20479;-86
2023/08/29 02:59:50;;;;;;;1739.75;999.90;;;11.10;99.90;;;;;;5049056;28;20048;-86
2023/08/29 03:02:15;;;;;;;1738.45;999.90;;;11.10;99.90;;;;;;5059139;28;20386;-86
2023/08/29 03:04:42;;;;;;;1638.32;999.90;;;11.00;99.90;;;;;;5026851;28;20044;-86
2023/08/29 03:07:08;;;;;;;1644.35;999.90;;;11.00;99.90;;;;;;5049536;28;20044;-86
2023/08/29 03:09:33;;;;;;;1800.18;999.90;;;11.00;99.90;;;;;;5062170;28;20581;-87
2023/08/29 03:11:59;;;;;;;1846.13;999.90;;;11.00;99.90;;;;;;5049395;28;20051;-85
2023/08/29 03:14:27;;;;;;;1900.38;999.90;;;11.00;99.90;;;;;;5049497;28;20044;-86
2023/08/29 03:16:53;;;;;;;1845.38;999.90;;;11.00;99.90;;;;;;5066605;28;20040;-86
2023/08/29 03:19:18;;;;;;;1651.65;999.90;;;10.90;99.90;;;;;;5066250;28;20120;-86
2023/08/29 03:21:44;;;;;;;1679.07;999.90;;;10.90;99.90;;;;;;5065649;28;20437;-85
2023/08/29 03:24:10;;;;;;;1866.93;999.90;;;10.80;99.90;;;;;;5048250;28;20078;-85
2023/08/29 03:26:35;;;;;;;1760.82;999.90;;;10.80;99.90;;;;;;5049476;28;20046;-85
2023/08/29 03:29:01;;;;;;;1878.60;999.90;;;10.70;99.90;;;;;;5048752;28;20044;-85
2023/08/29 03:31:27;;;;;;;1800.80;999.90;;;10.70;99.90;;;;;;5039794;28;20040;-85
2023/08/29 03:33:53;;;;;;;1797.15;999.90;;;10.70;99.90;;;;;;5052902;28;20097;-86
2023/08/29 03:36:19;;;;;;;1873.80;999.90;;;10.70;99.90;;;;;;5048582;28;20041;-86
2023/08/29 03:38:45;;;;;;;1791.65;999.90;;;10.70;99.90;;;;;;5065790;28;20052;-86
2023/08/29 03:41:11;;;;;;;1999.90;999.90;;;10.60;99.90;;;;;;5065990;28;20044;-86
2023/08/29 03:43:37;;;;;;;1943.85;999.90;;;10.60;99.90;;;;;;5066059;28;20381;-86
2023/08/29 03:46:07;;;;;;;1999.45;999.90;;;10.60;99.90;;;;;;5039936;28;20052;-86
2023/08/29 03:48:35;;;;;;;1963.05;999.90;;;10.60;99.90;;;;;;5036520;28;20036;-86
2023/08/29 03:51:07;;;;;;;1998.28;999.90;;;10.60;99.90;;;;;;5039676;28;20044;-86
2023/08/29 03:53:34;;;;;;;1809.50;999.90;;;10.60;99.90;;;;;;5063759;28;20041;-86
2023/08/29 03:56:04;;;;;;;1829.25;999.90;;;10.60;99.90;;;;;;5065114;28;20041;-86
2023/08/29 03:58:30;;;;;;;1890.28;999.90;;;10.50;99.90;;;;;;5059898;28;20036;-87
2023/08/29 04:00:56;;;;;;;1995.88;999.90;;;10.50;99.90;;;;;;5067186;28;20162;-86
2023/08/29 04:03:22;;;;;;;1999.90;999.90;;;10.50;99.90;;;;;;5036923;28;20040;-86
2023/08/29 04:05:48;;;;;;;1961.68;999.90;;;10.60;99.90;;;;;;5071303;28;20044;-86
2023/08/29 04:08:14;;;;;;;1878.35;999.90;;;10.60;99.90;;;;;;5053811;28;20059;-86
2023/08/29 04:10:40;;;;;;;1893.28;999.90;;;10.70;99.90;;;;;;5051850;28;20110;-86
2023/08/29 04:13:07;;;;;;;1999.90;999.90;;;10.70;99.90;;;;;;5053530;28;20595;-86
2023/08/29 04:15:33;;;;;;;1835.93;999.90;;;10.70;99.90;;;;;;5053006;28;20032;-86
2023/08/29 04:18:00;;;;;;;1753.22;999.90;;;10.70;99.90;;;;;;5052748;28;20968;-86
2023/08/29 04:20:27;;;;;;;1970.82;999.90;;;10.70;99.90;;;;;;5036446;28;20114;-86
2023/08/29 04:22:53;;;;;;;1946.22;999.90;;;10.70;99.90;;;;;;5052777;28;20041;-85
2023/08/29 04:25:19;;;;;;;1947.18;999.90;;;10.70;99.90;;;;;;5052428;28;20033;-86
2023/08/29 04:27:46;;;;;;;1904.85;999.90;;;10.70;99.90;;;;;;5059484;28;20090;-85
2023/08/29 04:30:12;;;;;;;1999.90;999.90;;;10.70;99.90;;;;;;5070129;28;20052;-86
2023/08/29 04:32:38;;;;;;;1999.18;999.90;;;10.80;99.90;;;;;;5051129;28;20098;-85
2023/08/29 04:35:06;;;;;;;1868.80;999.90;;;10.80;99.90;;;;;;5068815;28;20055;-86
2023/08/29 04:37:35;;;;;;;1971.63;999.90;;;10.70;99.90;;;;;;5034950;28;20044;-86
2023/08/29 04:40:06;;;;;;;1999.90;999.90;;;10.80;99.90;;;;;;5035002;28;20041;-86
2023/08/29 04:42:33;;;;;;;1995.68;999.90;;;10.80;99.90;;;;;;5038046;28;20043;-86
2023/08/29 04:45:04;;;;;;;1858.18;999.90;;;10.80;99.90;;;;;;5054240;28;20123;-86
2023/08/29 04:47:30;;;;;;;1938.82;999.90;;;10.80;99.90;;;;;;5085125;28;20126;-86
2023/08/29 04:49:56;;;;;;;1752.05;999.90;;;10.80;99.90;;;;;;5041713;28;20055;-86
2023/08/29 04:52:22;;;;;;;1988.15;999.90;;;10.80;99.90;;;;;;5051153;28;20399;-86
2023/08/29 04:54:47;;;;;;;1895.57;999.90;;;10.80;99.90;;;;;;5054259;28;20044;-86
2023/08/29 04:57:13;;;;;;;1906.07;999.90;;;10.80;99.90;;;;;;5066268;28;20040;-87
2023/08/29 04:59:39;;;;;;;1960.07;999.90;;;10.70;99.90;;;;;;5036381;28;20037;-87
2023/08/29 05:02:04;;;;;;;1961.00;999.90;;;10.60;99.90;;;;;;5070757;28;20190;-87
2023/08/29 05:04:30;;;;;;;1987.65;999.90;;;10.70;99.90;;;;;;5069473;28;20049;-87
2023/08/29 05:06:56;;;;;;;1992.95;999.90;;;10.60;99.90;;;;;;5034731;28;20040;-87
2023/08/29 05:09:22;;;;;;;1989.32;999.90;;;10.60;99.90;;;;;;5035271;28;20553;-87
2023/08/29 05:11:47;;;;;;;1986.50;999.90;;;10.60;99.90;;;;;;5051427;28;20466;-87
2023/08/29 05:14:13;;;;;;;1973.97;999.90;;;10.60;99.90;;;;;;5051255;28;20148;-86
2023/08/29 05:16:39;;;;;;;1990.95;999.90;;;10.60;99.90;;;;;;5046098;28;20040;-87
2023/08/29 05:19:07;;;;;;;1983.22;999.90;;;10.60;99.90;;;;;;5045195;28;20071;-87
2023/08/29 05:21:33;;;;;;;1827.43;999.90;;;10.60;99.90;;;;;;5052108;28;20194;-86
2023/08/29 05:24:00;;;;;;;1790.25;999.90;;;10.50;99.90;;;;;;5042393;28;20040;-87
2023/08/29 05:26:26;;;;;;;1943.82;999.90;;;10.60;99.90;;;;;;5058470;28;20048;-87
2023/08/29 05:28:52;;;;;;;1985.35;999.90;;;10.60;99.90;;;;;;5067045;28;20045;-87
2023/08/29 05:31:18;;;;;;;1972.10;999.90;;;10.60;99.90;;;;;;5035309;28;20047;-86
2023/08/29 05:33:44;;;;;;;1824.03;999.90;;;10.60;99.90;;;;;;5043218;28;20032;-86
2023/08/29 05:36:09;;;;;;;1997.45;999.90;;;10.70;99.90;;;;;;5042824;28;20116;-86
2023/08/29 05:38:35;;;;;;;1817.25;999.90;;;10.70;99.90;;;;;;5051671;28;20044;-87
2023/08/29 05:41:02;;;;;;;1745.25;999.90;;;10.70;99.90;;;;;;5050791;28;20468;-87
2023/08/29 05:43:28;;;;;;;1803.97;999.90;;;10.80;99.90;;;;;;5028575;28;20055;-87
2023/08/29 05:45:57;;;;;;;1940.35;999.90;;;10.80;99.90;;;;;;5040319;28;20040;-87
2023/08/29 05:48:23;;;;;;;1737.90;999.90;;;10.90;99.90;;;;;;5068290;28;20044;-86
2023/08/29 05:50:54;;;;;;;1929.40;999.90;;;11.00;99.90;;;;;;5067068;28;20424;-87
2023/08/29 05:53:20;;;;;;;1894.55;999.90;;;11.00;99.90;;;;;;5068249;28;20480;-87
2023/08/29 05:55:47;;;;;;;1609.55;999.90;;;11.10;99.90;;;;;;5049600;28;20047;-87
2023/08/29 05:58:13;;;;;;;1830.88;999.90;;;11.10;99.90;;;;;;5042743;28;20092;-87
2023/08/29 06:00:39;;;;;;;1622.07;999.90;;;11.20;99.90;;;;;;5050353;28;20103;-86
2023/08/29 06:03:06;;;;;;;1851.40;999.90;;;11.30;99.90;;;;;;5053369;28;20479;-86
2023/08/29 06:05:33;;;;;;;1821.05;999.90;;;11.40;99.90;;;;;;5050865;28;20131;-86
2023/08/29 06:08:02;;;;;;;1837.22;999.90;;;11.50;99.90;;;;;;5046254;28;20048;-86
2023/08/29 06:10:29;;;;;;;1653.10;999.90;;;11.60;99.90;;;;;;5078492;28;20102;-86
2023/08/29 06:12:55;;;;;;;1837.65;999.90;;;11.70;99.90;;;;;;5050390;28;20048;-87
2023/08/29 06:15:22;;;;;;;1648.25;999.90;;;11.90;99.90;;;;;;5066137;28;20124;-87
2023/08/29 06:17:48;;;;;;;1652.63;999.90;;;12.10;99.90;;;;;;5038873;28;20045;-87
2023/08/29 06:20:15;;;;;;;1635.05;999.90;;;12.20;99.90;;;;;;5030849;28;20053;-81
2023/08/29 06:22:49;;;;;;;1586.88;999.90;;;12.30;99.90;;;;;;5045688;28;20044;-88
2023/08/29 06:25:15;;;;;;;1541.13;999.90;;;12.40;99.90;;;;;;5058378;28;20048;-88
2023/08/29 06:27:41;;;;;;;1488.72;999.90;;;12.60;99.90;;;;;;5048958;28;20127;-87
2023/08/29 06:30:13;;;;;;;1441.53;999.90;;;12.80;99.90;;;;;;5033437;28;20156;-88
2023/08/29 06:33:11;;;;;;;1381.07;999.90;;;13.00;99.90;;;;;;5045932;28;20047;-90
2023/08/29 06:35:42;;;;;;;1369.47;999.90;;;13.10;99.90;;;;;;5032538;28;20052;-89
2023/08/29 06:38:11;;;;;;;1279.03;999.90;;;13.30;99.90;;;;;;5041656;28;20044;-88
2023/08/29 06:40:55;;;;;;;;;;;13.50;99.90;;;;;;5054196;28;20165;-87
2023/08/29 06:44:02;;;;;;;1479.72;999.90;;;13.70;99.90;;;;;;5040500;28;19979;-89
2023/08/29 06:46:34;;;;;;;1347.22;999.90;;;13.80;99.90;;;;;;5014658;28;20032;-88
2023/08/29 06:49:38;;;;;;;1287.07;999.90;;;14.00;99.90;;;;;;5015471;28;20117;-88
2023/08/29 06:52:07;;;;;;;1267.22;999.75;;;14.20;99.90;;;;;;5013225;28;20049;-89
2023/08/29 06:55:02;;;;;;;1183.82;974.05;;;14.30;99.90;;;;;;5014733;28;20128;-91
2023/08/29 06:58:02;;;;;;;1254.10;999.90;;;14.50;99.90;;;;;;4985225;28;20054;-90
2023/08/29 07:00:28;;;;;;;1181.10;984.95;;;14.60;99.90;;;;;;5024781;28;20049;-87
2023/08/29 07:06:02;;;;;;;1189.63;982.75;;;14.90;99.90;;;;;;5098151;22;20041;-89
2023/08/29 07:12:28;;;;;;;1287.07;999.90;;;15.20;99.90;;;;;;5030692;28;20171;-86
2023/08/29 07:14:54;;;;;;;1138.03;964.45;;;15.40;99.90;;;;;;4993583;28;20076;-85
2023/08/29 07:17:19;;;;;;;1080.47;962.30;;;15.60;99.90;;;;;;5000523;28;20068;-87
2023/08/29 07:19:45;;;;;;;1059.72;945.97;;;15.70;99.90;;;;;;5025514;28;20134;-87
2023/08/29 07:22:11;;;;;;;1042.10;929.97;;;15.80;99.90;;;;;;5038873;28;20049;-88
2023/08/29 07:24:39;;;;;;;993.20;891.20;;;15.90;99.90;;;;;;5009433;28;20489;-86
2023/08/29 07:27:06;;;;;;;947.38;854.00;;;16.00;99.90;;;;;;5017993;28;20452;-84
2023/08/29 07:29:31;;;;;;;951.17;858.28;;;16.10;99.90;;;;;;5024879;28;20041;-85
2023/08/29 07:31:57;;;;;;;910.78;823.55;;;16.20;99.90;;;;;;5026550;28;20053;-87
2023/08/29 07:34:24;;;;;;;903.70;818.55;;;16.20;99.90;;;;;;5009126;28;20462;-86
2023/08/29 07:36:49;;;;;;;868.80;788.95;;;16.30;99.90;;;;;;5025281;28;20045;-86
2023/08/29 07:39:18;;;;;;;713.47;657.42;;;16.40;99.90;;;;;;5023981;28;20052;-87
2023/08/29 07:41:47;;;;;;;545.78;501.58;;;16.50;99.90;;;;;;5007334;28;20080;-88
2023/08/29 07:44:13;;;;;;;743.80;685.53;;;16.50;99.90;;;;;;5043145;28;20122;-87
2023/08/29 07:46:39;;;;;;;596.17;549.67;;;16.60;99.90;;;;;;5009560;28;20220;-87
2023/08/29 07:49:13;;;;;;;537.15;491.55;;;16.60;99.90;;;;;;5039805;28;20393;-86
2023/08/29 07:51:42;;;;;;;571.15;522.38;;;16.70;99.90;;;;;;5023984;28;20111;-85
2023/08/29 07:54:08;;;;;;;582.85;531.80;;;16.70;99.90;;;;;;5023799;28;20041;-85
2023/08/29 07:56:33;;;;;;;756.03;692.08;;;16.70;99.90;;;;;;5024919;28;20043;-86
2023/08/29 07:58:59;;;;;;;837.75;762.03;;;16.80;99.90;;;;;;5007706;28;20042;-86
2023/08/29 08:01:25;;;;;;;843.65;768.58;;;16.80;99.90;;;;;;4998548;28;20100;-86
2023/08/29 08:03:56;;;;;;;871.03;791.35;;;16.80;99.90;;;;;;5022842;28;20399;-86
2023/08/29 08:06:22;;;;;;;847.00;771.13;;;16.90;99.90;;;;;;5022154;28;20053;-86
2023/08/29 08:08:51;;;;;;;768.65;700.28;;;17.00;99.90;;;;;;5025359;28;20057;-85
2023/08/29 08:11:17;;;;;;;737.53;672.28;;;17.10;99.90;;;;;;5010164;28;20052;-86
2023/08/29 08:13:43;;;;;;;750.63;684.08;;;17.10;99.90;;;;;;5006781;28;20420;-86
2023/08/29 08:16:08;;;;;;;658.10;598.47;;;17.20;99.90;;;;;;5036331;28;20072;-85
2023/08/29 08:18:34;;;;;;;699.83;637.45;;;17.30;99.90;;;;;;5026537;28;20544;-86
2023/08/29 08:21:00;;;;;;;684.50;621.08;;;17.30;99.90;;;;;;5009498;28;20451;-85
2023/08/29 08:23:26;;;;;;;581.13;527.75;;;17.40;99.90;;;;;;5010267;28;20120;-86
2023/08/29 08:25:54;;;;;;;298.80;271.38;;;17.50;99.90;;;;;;5022581;28;20164;-86
2023/08/29 08:28:21;;;;;;;436.65;395.08;;;17.50;99.90;;;;;;4992503;28;20052;-86
2023/08/29 08:30:48;;;;;;;472.13;427.48;;;17.60;99.90;;;;;;5012491;28;20041;-85
2023/08/29 08:33:14;;;;;;;367.73;332.63;;;17.70;99.90;;;;;;4998577;28;20044;-85
2023/08/29 08:35:39;;;;;;;235.85;213.65;;;17.80;99.90;;;;;;5004768;28;20121;-85
2023/08/29 08:38:08;;;;;;;176.95;160.27;;;17.90;99.90;;;;;;5030584;28;20045;-85
2023/08/29 08:40:36;;;;;;;239.80;216.25;;;18.00;99.90;;;;;;5006754;28;20053;-86
2023/08/29 08:43:05;;;;;;;271.88;244.55;;;18.10;99.90;;;;;;5026526;28;20075;-85
2023/08/29 08:45:34;;;;;;;248.82;223.00;;;18.10;99.90;;;;;;5023553;28;20420;-85
2023/08/29 08:48:01;;;;;;;301.17;270.55;;;18.20;99.90;;;;;;5010640;28;20500;-85
2023/08/29 08:50:27;;;;;;;233.77;210.75;;;18.20;99.90;;;;;;5027709;28;20045;-86
2023/08/29 08:52:55;;;;;;;382.55;343.63;;;18.10;99.90;;;;;;5028625;28;20088;-85
2023/08/29 08:55:21;;;;;;;388.15;348.00;;;18.10;99.90;;;;;;5027548;28;20033;-85
2023/08/29 08:57:50;;;;;;;350.83;313.13;;;18.20;99.90;;;;;;5012844;28;20084;-85
2023/08/29 09:00:25;;;;;;;349.25;311.52;;;17.90;99.90;;;;;;5045126;28;20091;-86
2023/08/29 09:02:52;;;;;;;279.60;252.13;;;18.10;99.90;;;;;;5003188;28;20405;-85
2023/08/29 09:05:22;;;;;;;219.82;198.02;;;18.20;99.90;;;;;;5013525;28;20396;-86
2023/08/29 09:07:50;;;;;;;367.67;332.50;;;18.30;99.90;;;;;;5024552;28;20041;-86
2023/08/29 09:10:25;;;;;;;258.67;233.35;;;18.50;99.90;;;;;;5029487;28;20124;-86
2023/08/29 09:12:56;;;;;;;292.58;262.08;;;18.60;99.90;;;;;;5038690;28;20049;-85
2023/08/29 09:15:25;;;;;;;527.70;478.17;;;18.70;99.90;;;;;;5000861;28;20045;-86
2023/08/29 09:18:00;;;;;;;659.58;597.88;;;18.60;99.90;;;;;;4999504;28;20049;-85
2023/08/29 09:20:42;;;;;;;756.67;691.10;;;18.60;99.90;;;;;;5011183;28;20045;-85
2023/08/29 09:23:21;;;;;;;843.40;765.08;;;18.40;99.90;;;;;;5027584;28;20041;-85
2023/08/29 09:25:57;;;;;;;760.35;689.13;;;18.40;99.90;;;;;;5028810;28;20322;-85
2023/08/29 09:28:27;;;;;;;723.55;655.13;;;18.30;99.90;;;;;;5007614;28;20049;-85
2023/08/29 09:30:53;;;;;;;701.13;636.88;;;18.30;99.90;;;;;;5004793;28;20448;-85
2023/08/29 09:33:21;;;;;;;771.42;702.45;;;18.40;99.90;;;;;;5011162;28;20045;-86
2023/08/29 09:35:48;;;;;;;714.40;643.22;;;18.40;99.90;;;;;;5009910;28;20116;-86
2023/08/29 09:38:15;;;;;;;465.98;423.27;;;18.40;99.90;;;;;;5018928;28;20378;-85
2023/08/29 09:40:45;;;;;;;696.72;633.25;;;18.40;99.90;;;;;;4996510;28;20038;-85
2023/08/29 09:43:14;;;;;;;566.38;509.90;;;18.50;99.90;;;;;;5019758;28;20112;-85
2023/08/29 09:45:40;;;;;;;473.58;428.05;;;18.60;99.90;;;;;;5009249;28;20119;-85
2023/08/29 09:48:08;;;;;;;386.17;350.25;;;18.80;99.90;;;;;;5019587;28;20971;-86
2023/08/29 09:50:36;;;;;;;558.33;508.13;;;19.00;99.90;;;;;;5010236;28;20531;-85
2023/08/29 09:53:02;;;;;;;550.30;506.63;;;19.30;99.90;;;;;;5028285;28;20053;-85
2023/08/29 09:55:35;;;;;;;388.20;356.65;;;19.40;99.90;;;;;;5025789;28;20092;-86
2023/08/29 09:58:11;;;;;;;630.20;578.05;;;19.50;99.90;;;;;;5016946;28;20049;-85
2023/08/29 10:03:16;;;;;;;722.30;661.25;;;19.70;99.90;;;;;;5167248;22;20459;-94
2023/08/29 10:05:44;;;;;;;701.05;642.35;;;19.90;99.90;;;;;;5060778;28;20053;-94
2023/08/29 10:08:33;;;;;;;433.42;399.48;;;20.00;99.90;;;;;;5051771;28;20036;-94
2023/08/29 10:11:00;;;;;;;791.03;722.15;;;20.10;99.90;;;;;;5050540;28;20515;-95
2023/08/29 10:13:27;;;;;;;705.65;643.95;;;20.20;99.90;;;;;;5063728;28;20048;-94
2023/08/29 10:15:53;;;;;;;425.17;389.92;;;20.20;99.90;;;;;;5034500;28;20052;-94
2023/08/29 10:18:20;;;;;;;235.93;216.80;;;20.30;99.90;;;;;;5052011;28;20499;-94
2023/08/29 10:20:48;;;;;;;554.95;505.60;;;20.40;99.90;;;;;;5052693;28;20044;-94
2023/08/29 10:23:17;;;;;;;416.88;383.45;;;20.40;99.90;;;;;;5045598;28;20041;-95
2023/08/29 10:25:45;;;;;;;470.98;431.48;;;20.50;99.90;;;;;;5045459;28;20045;-94
2023/08/29 10:28:12;;;;;;;267.60;245.68;;;20.60;99.90;;;;;;5053416;28;20055;-94
2023/08/29 10:30:42;;;;;;;373.75;340.67;;;20.60;99.90;;;;;;5071826;28;20051;-95
2023/08/29 10:33:08;;;;;;;357.45;325.10;;;20.50;99.90;;;;;;5039371;28;20049;-94
2023/08/29 10:35:34;;;;;;;256.25;234.90;;;20.50;99.90;;;;;;5064109;28;20040;-93
2023/08/29 10:38:09;;;;;;;414.92;378.17;;;20.50;99.90;;;;;;5041791;28;20048;-95
2023/08/29 10:40:35;;;;;;;277.63;254.27;;;20.60;99.90;;;;;;5038827;28;20040;-93
2023/08/29 10:43:02;;;;;;;368.50;335.88;;;20.70;99.90;;;;;;5060774;28;20036;-94
2023/08/29 10:45:47;;;;;;;369.58;337.52;;;20.70;99.90;;;;;;5049504;28;20769;-93
2023/08/29 10:48:17;;;;;;;566.63;512.75;;;20.80;99.90;;;;;;5047210;28;20124;-94
2023/08/29 10:51:08;;;;;;;462.65;426.30;;;20.80;99.90;;;;;;5062837;28;20059;-94
2023/08/29 10:53:38;;;;;;;638.17;579.50;;;20.80;99.90;;;;;;5057510;28;20176;-94
2023/08/29 10:56:07;;;;;;;462.15;422.55;;;20.80;99.90;;;;;;5052599;28;20474;-95
2023/08/29 10:58:40;;;;;;;439.95;404.05;;;20.80;99.90;;;;;;5041645;28;20041;-94
2023/08/29 11:01:30;;;;;;;526.10;482.90;;;21.00;99.90;;;;;;5068660;28;20119;-94
2023/08/29 11:04:15;;;;;;;508.52;460.13;;;21.00;99.90;;;;;;5052085;28;20239;-94
2023/08/29 11:06:55;;;;;;;522.60;473.77;;;21.00;99.90;;;;;;5051697;28;20051;-94
2023/08/29 11:09:25;;;;;;;415.50;378.45;;;21.00;99.90;;;;;;5058524;28;20109;-94
2023/08/29 11:12:12;;;;;;;430.48;389.88;;;21.00;99.90;;;;;;5045629;28;20040;-94
2023/08/29 11:14:51;;;;;;;520.35;476.15;;;21.20;99.90;;;;;;5060866;28;20480;-94
2023/08/29 11:17:23;;;;;;;528.63;478.25;;;21.30;99.90;;;;;;5051562;28;20051;-93
2023/08/29 11:19:57;;;;;;;578.00;525.08;;;21.30;99.90;;;;;;5033702;28;20044;-94
2023/08/29 11:22:25;;;;;;;749.80;680.17;;;21.30;99.90;;;;;;5056960;28;20080;-93
2023/08/29 11:24:54;;;;;;;477.63;431.63;;;21.30;99.90;;;;;;5045144;28;20470;-95
2023/08/29 11:27:24;;;;;;;431.30;389.65;;;21.20;99.90;;;;;;5049271;28;20144;-94
2023/08/29 11:29:52;;;;;;;761.28;688.17;;;21.20;99.90;;;;;;5051569;28;20087;-94
2023/08/29 11:32:21;;;;;;;419.13;378.77;;;21.20;99.90;;;;;;5054392;28;20049;-95
2023/08/29 11:34:52;;;;;;;434.52;395.10;;;21.20;99.90;;;;;;5050630;28;20045;-92
2023/08/29 11:37:18;;;;;;;523.03;473.95;;;21.30;99.90;;;;;;5069382;28;20093;-92
2023/08/29 11:39:54;;;;;;;455.55;410.98;;;21.30;99.90;;;;;;5053011;28;20079;-92
2023/08/29 11:42:20;;;;;;;484.88;442.30;;;21.30;99.90;;;;;;5050760;28;20083;-93
2023/08/29 11:44:47;;;;;;;576.95;526.28;;;21.30;99.90;;;;;;5050678;28;20048;-93
2023/08/29 11:47:16;;;;;;;690.40;623.92;;;21.30;99.90;;;;;;5051081;28;20131;-93
2023/08/29 11:49:42;;;;;;;604.78;550.58;;;21.30;99.90;;;;;;5038040;28;20044;-93
2023/08/29 11:52:09;;;;;;;560.53;506.90;;;21.40;99.90;;;;;;5062059;28;20040;-93
2023/08/29 11:54:44;;;;;;;701.05;636.92;;;21.30;99.90;;;;;;5061010;28;20504;-93
2023/08/29 11:57:15;;;;;;;618.60;557.65;;;21.40;99.90;;;;;;5061876;28;20052;-93
2023/08/29 11:59:50;;;;;;;599.33;550.28;;;21.40;99.90;;;;;;5051005;28;20519;-92
2023/08/29 12:02:17;;;;;;;551.90;499.15;;;21.40;99.90;;;;;;5051032;28;20059;-93
2023/08/29 12:04:44;;;;;;;640.55;583.75;;;21.50;99.90;;;;;;5054089;28;20103;-93
2023/08/29 12:07:17;;;;;;;640.95;589.03;;;21.50;99.90;;;;;;5039345;28;20437;-93
2023/08/29 12:09:45;;;;;;;569.33;513.72;;;21.50;99.90;;;;;;5035088;28;20060;-93
2023/08/29 12:12:32;;;;;;;683.58;623.20;;;21.60;99.90;;;;;;5041120;28;20040;-92
2023/08/29 12:14:58;;;;;;;616.00;564.67;;;21.70;99.90;;;;;;5053883;28;20495;-93
2023/08/29 12:17:41;;;;;;;878.40;799.10;;;21.70;99.90;;;;;;5014663;28;20040;-92
2023/08/29 12:20:28;;;;;;;685.28;632.08;;;21.80;99.90;;;;;;5032887;28;20044;-91